createdAt,value
2019-04-20T00:00:36.263Z,86.68
2019-04-20T00:01:33.606Z,87.81
2019-04-20T00:02:29.664Z,88.98
2019-04-20T00:03:35.006Z,89.09
2019-04-20T00:04:33.921Z,89.09
2019-04-20T00:05:30.890Z,88.57
2019-04-20T00:06:31.750Z,87.85
2019-04-20T00:07:34.339Z,88.89
2019-04-20T00:08:34.519Z,87.54
2019-04-20T00:09:34.623Z,89.03
2019-04-20T00:10:41.729Z,88.20
2019-04-20T00:11:41.475Z,88.20
2019-04-20T00:12:46.059Z,87.58
2019-04-20T00:13:40.737Z,87.58
2019-04-20T00:14:33.870Z,87.68
2019-04-20T00:15:30.202Z,88.10
2019-04-20T00:16:29.365Z,88.10
2019-04-20T00:17:30.358Z,87.89
2019-04-20T00:18:36.924Z,87.58
2019-04-20T00:19:37.254Z,87.07
2019-04-20T00:20:34.023Z,86.86
2019-04-20T00:21:30.914Z,87.23
2019-04-20T00:22:36.711Z,87.07
2019-04-20T00:23:35.409Z,87.58
2019-04-20T00:24:33.928Z,89.03
2019-04-20T00:25:45.889Z,88.76
2019-04-20T00:27:00.673Z,88.86
2019-04-20T00:27:50.273Z,89.79
2019-04-20T00:28:48.817Z,89.65
2019-04-20T00:29:49.403Z,89.48
2019-04-20T00:30:51.874Z,89.89
2019-04-20T00:31:45.754Z,89.75
2019-04-20T00:32:46.646Z,88.96
2019-04-20T00:33:44.276Z,88.10
2019-04-20T00:34:35.608Z,88.82
2019-04-20T00:35:31.314Z,88.55
2019-04-20T00:36:29.192Z,88.82
2019-04-20T00:37:29.902Z,89.34
2019-04-20T00:38:35.164Z,89.34
2019-04-20T00:39:30.030Z,89.13
2019-04-20T00:41:43.782Z,88.82
2019-04-20T00:42:46.816Z,89.59
2019-04-20T00:43:42.069Z,88.76
2019-04-20T00:44:41.274Z,88.96
2019-04-20T00:45:46.859Z,88.14
2019-04-20T00:46:53.512Z,88.65
2019-04-20T00:47:47.813Z,88.65
2019-04-20T00:48:48.497Z,88.28
2019-04-20T00:49:55.124Z,89.01
2019-04-20T00:50:57.245Z,89.94
2019-04-20T00:52:11.159Z,90.14
2019-04-20T00:52:54.269Z,91.38
2019-04-20T00:53:46.414Z,91.17
2019-04-20T00:54:41.132Z,91.28
2019-04-20T00:55:42.223Z,90.45
2019-04-20T00:56:39.247Z,89.62
2019-04-20T00:57:50.472Z,90.14
2019-04-20T01:00:14.810Z,91.49
2019-04-20T01:02:18.124Z,90.97
2019-04-20T01:03:23.281Z,91.59
2019-04-20T01:04:25.307Z,92.11
2019-04-20T01:05:23.358Z,91.59
2019-04-20T01:06:24.802Z,90.19
2019-04-20T01:07:15.208Z,89.56
2019-04-20T01:08:08.191Z,89.15
2019-04-20T01:09:03.594Z,89.36
2019-04-20T01:10:06.986Z,89.87
2019-04-20T01:11:04.263Z,89.87
2019-04-20T01:12:10.035Z,89.36
2019-04-20T01:13:11.654Z,89.50
2019-04-20T01:14:10.504Z,89.71
2019-04-20T01:15:07.799Z,90.12
2019-04-20T01:16:08.463Z,90.53
2019-04-20T01:17:11.812Z,90.44
2019-04-20T01:18:04.452Z,90.33
2019-04-20T01:19:03.460Z,90.02
2019-04-20T01:20:03.463Z,90.12
2019-04-20T01:21:06.839Z,89.75
2019-04-20T01:24:29.123Z,89.13
2019-04-20T01:25:28.897Z,90.68
2019-04-20T01:26:24.269Z,91.30
2019-04-20T01:27:32.178Z,92.18
2019-04-20T01:28:37.467Z,92.59
2019-04-20T01:29:32.361Z,93.31
2019-04-20T01:30:30.322Z,94.24
2019-04-20T01:31:33.575Z,94.10
2019-04-20T01:32:33.426Z,92.59
2019-04-20T01:33:31.750Z,91.72
2019-04-20T01:34:35.907Z,91.76
2019-04-20T01:35:39.149Z,91.24
2019-04-20T01:36:43.000Z,90.93
2019-04-20T01:37:34.205Z,91.60
2019-04-20T01:38:42.589Z,91.76
2019-04-20T01:39:34.122Z,91.66
2019-04-20T01:40:23.225Z,91.80
2019-04-20T01:41:22.382Z,92.01
2019-04-20T01:42:21.739Z,92.74
2019-04-20T01:43:22.681Z,92.94
2019-04-20T01:44:26.121Z,92.94
2019-04-20T01:45:30.807Z,93.35
2019-04-20T01:46:25.470Z,92.01
2019-04-20T01:47:25.781Z,92.01
2019-04-20T01:48:28.766Z,93.15
2019-04-20T01:49:27.067Z,93.77
2019-04-20T01:50:27.680Z,93.29
2019-04-20T01:51:27.277Z,93.46
2019-04-20T01:52:29.899Z,94.29
2019-04-20T01:53:40.566Z,93.77
2019-04-20T01:54:42.127Z,93.25
2019-04-20T01:55:41.566Z,94.39
2019-04-20T01:56:36.182Z,95.01
2019-04-20T01:57:30.016Z,94.08
2019-04-20T01:58:39.857Z,93.77
2019-04-20T01:59:37.070Z,92.32
2019-04-20T02:00:29.696Z,93.04
2019-04-20T02:01:27.178Z,93.04
2019-04-20T02:02:24.929Z,93.40
2019-04-20T02:03:30.409Z,94.02
2019-04-20T02:04:29.169Z,94.02
2019-04-20T02:05:29.116Z,93.81
2019-04-20T02:06:25.042Z,94.29
2019-04-20T02:07:30.560Z,93.19
2019-04-20T02:08:25.910Z,92.88
2019-04-20T02:09:26.406Z,93.25
2019-04-20T02:10:33.256Z,93.56
2019-04-20T02:11:30.542Z,93.35
2019-04-20T02:12:28.438Z,92.84
2019-04-20T02:13:26.187Z,92.22
2019-04-20T02:14:28.659Z,92.26
2019-04-20T02:15:30.971Z,92.47
2019-04-20T02:16:32.735Z,93.29
2019-04-20T02:18:51.631Z,94.33
2019-04-20T02:22:08.833Z,94.54
2019-04-20T02:23:10.691Z,94.29
2019-04-20T02:24:00.611Z,94.02
2019-04-20T02:24:57.146Z,93.81
2019-04-20T02:25:55.113Z,94.12
2019-04-20T02:26:55.883Z,94.23
2019-04-20T02:28:13.622Z,94.02
2019-04-20T02:29:19.033Z,94.27
2019-04-20T02:30:27.506Z,94.37
2019-04-20T02:31:34.651Z,94.37
2019-04-20T02:32:30.450Z,94.37
2019-04-20T02:33:34.832Z,94.23
2019-04-20T02:34:35.685Z,95.20
2019-04-20T02:35:24.039Z,94.37
2019-04-20T02:38:03.551Z,93.65
2019-04-20T02:39:13.746Z,94.79
2019-04-20T02:39:57.364Z,95.51
2019-04-20T02:42:57.563Z,93.85
2019-04-20T02:44:06.537Z,93.96
2019-04-20T02:45:01.072Z,93.38
2019-04-20T02:45:50.817Z,94.17
2019-04-20T02:47:56.547Z,94.94
2019-04-20T02:49:02.272Z,95.67
2019-04-20T02:50:03.206Z,95.93
2019-04-20T02:50:56.245Z,94.63
2019-04-20T02:52:55.965Z,94.42
2019-04-20T02:54:11.114Z,94.01
2019-04-20T02:55:02.184Z,94.32
2019-04-20T02:55:55.696Z,95.81
2019-04-20T02:57:02.775Z,95.56
2019-04-20T02:59:13.334Z,94.84
2019-04-20T03:02:57.264Z,94.42
2019-04-20T03:03:52.577Z,94.32
2019-04-20T03:04:59.957Z,95.50
2019-04-20T03:06:04.445Z,95.15
2019-04-20T03:07:06.775Z,94.15
2019-04-20T03:09:19.934Z,95.61
2019-04-20T03:10:18.911Z,97.37
2019-04-20T03:11:21.147Z,97.89
2019-04-20T03:12:28.862Z,97.95
2019-04-20T03:13:25.360Z,97.85
2019-04-20T03:14:19.156Z,97.43
2019-04-20T03:15:21.776Z,97.27
2019-04-20T03:16:20.823Z,96.54
2019-04-20T03:17:22.717Z,96.33
2019-04-20T03:18:19.510Z,96.54
2019-04-20T03:19:18.637Z,96.39
2019-04-20T03:20:24.444Z,96.44
2019-04-20T03:21:24.745Z,96.44
2019-04-20T03:22:23.570Z,96.33
2019-04-20T03:23:29.845Z,95.92
2019-04-20T03:24:26.762Z,95.81
2019-04-20T03:25:24.208Z,95.50
2019-04-20T03:26:22.054Z,95.71
2019-04-20T03:27:16.025Z,94.36
2019-04-20T03:28:18.256Z,94.46
2019-04-20T03:29:12.744Z,94.57
2019-04-20T03:30:58.122Z,94.61
2019-04-20T03:32:58.322Z,94.36
2019-04-20T03:33:31.400Z,95.61
2019-04-20T03:34:48.930Z,95.40
2019-04-20T03:35:22.507Z,97.16
2019-04-20T03:36:31.822Z,97.27
2019-04-20T03:37:26.714Z,96.54
2019-04-20T03:39:19.089Z,95.71
2019-04-20T03:40:12.823Z,95.40
2019-04-20T03:41:08.600Z,94.67
2019-04-20T03:42:02.265Z,95.29
2019-04-20T03:42:59.506Z,95.92
2019-04-20T03:44:06.466Z,94.46
2019-04-20T03:45:05.766Z,94.67
2019-04-20T03:46:05.565Z,94.36
2019-04-20T03:47:02.812Z,94.67
2019-04-20T03:48:09.108Z,94.82
2019-04-20T03:49:14.566Z,95.23
2019-04-20T03:50:25.027Z,96.48
2019-04-20T03:52:23.449Z,97.41
2019-04-20T03:53:31.481Z,97.27
2019-04-20T03:54:20.199Z,96.33
2019-04-20T03:55:26.251Z,95.71
2019-04-20T03:56:27.973Z,95.61
2019-04-20T03:57:38.333Z,93.99
2019-04-20T03:58:22.019Z,94.78
2019-04-20T03:59:21.313Z,96.69
2019-04-20T04:00:26.480Z,96.37
2019-04-20T04:01:35.980Z,95.96
2019-04-20T04:02:47.985Z,95.96
2019-04-20T04:04:25.262Z,95.65
2019-04-20T04:06:17.896Z,96.37
2019-04-20T04:07:25.168Z,95.71
2019-04-20T04:08:23.533Z,95.40
2019-04-20T04:09:25.715Z,94.67
2019-04-20T04:10:28.044Z,94.46
2019-04-20T04:11:31.255Z,94.57
2019-04-20T04:12:23.681Z,94.36
2019-04-20T04:13:16.839Z,94.88
2019-04-20T04:14:14.040Z,95.92
2019-04-20T04:15:12.689Z,95.71
2019-04-20T04:16:15.025Z,94.46
2019-04-20T04:17:19.248Z,93.78
2019-04-20T04:18:19.695Z,94.61
2019-04-20T04:19:22.651Z,94.45
2019-04-20T04:20:17.528Z,94.30
2019-04-20T04:21:21.227Z,95.23
2019-04-20T04:23:44.516Z,94.65
2019-04-20T04:26:00.637Z,95.79
2019-04-20T04:26:55.983Z,95.73
2019-04-20T04:28:01.332Z,95.63
2019-04-20T04:29:00.688Z,97.40
2019-04-20T04:29:59.471Z,97.35
2019-04-20T04:31:04.143Z,96.57
2019-04-20T04:32:06.579Z,96.42
2019-04-20T04:33:23.452Z,95.38
2019-04-20T04:34:12.592Z,95.59
2019-04-20T04:35:00.609Z,96.62
2019-04-20T04:35:56.616Z,96.52
2019-04-20T04:37:01.904Z,96.52
2019-04-20T04:38:02.933Z,96.00
2019-04-20T04:39:03.691Z,95.79
2019-04-20T04:40:01.185Z,95.59
2019-04-20T04:41:09.549Z,95.79
2019-04-20T04:42:14.202Z,95.59
2019-04-20T04:42:58.450Z,94.86
2019-04-20T04:44:01.788Z,95.17
2019-04-20T04:44:50.481Z,95.03
2019-04-20T04:45:42.598Z,96.00
2019-04-20T04:46:49.256Z,94.34
2019-04-20T04:47:41.219Z,94.13
2019-04-20T04:48:44.023Z,94.24
2019-04-20T04:49:44.421Z,94.13
2019-04-20T04:50:47.998Z,94.13
2019-04-20T04:51:50.385Z,95.90
2019-04-20T04:52:52.239Z,95.69
2019-04-20T04:53:50.537Z,95.59
2019-04-20T04:54:52.081Z,95.28
2019-04-20T04:55:50.067Z,95.90
2019-04-20T04:56:41.924Z,95.75
2019-04-20T04:57:41.237Z,95.96
2019-04-20T04:58:40.497Z,96.06
2019-04-20T04:59:40.382Z,95.96
2019-04-20T05:00:40.840Z,95.65
2019-04-20T05:01:40.486Z,95.71
2019-04-20T05:02:45.085Z,95.86
2019-04-20T05:04:05.626Z,96.37
2019-04-20T05:05:05.581Z,95.61
2019-04-20T05:06:03.470Z,95.61
2019-04-20T05:06:56.911Z,94.67
2019-04-20T05:07:54.475Z,94.46
2019-04-20T05:08:45.485Z,94.53
2019-04-20T05:09:41.541Z,93.60
2019-04-20T05:10:39.948Z,92.49
2019-04-20T05:11:40.627Z,92.44
2019-04-20T05:12:40.923Z,92.19
2019-04-20T05:13:48.551Z,90.70
2019-04-20T05:14:53.640Z,89.01
2019-04-20T05:15:55.247Z,88.80
2019-04-20T05:16:54.631Z,88.14
2019-04-20T05:18:01.768Z,87.93
2019-04-20T05:19:03.388Z,86.55
2019-04-20T05:19:57.503Z,84.75
2019-04-20T05:20:58.481Z,85.64
2019-04-20T05:22:04.002Z,84.72
2019-04-20T05:23:01.170Z,83.23
2019-04-20T05:23:59.462Z,83.33
2019-04-20T05:25:02.130Z,82.98
2019-04-20T05:26:01.900Z,82.37
2019-04-20T05:27:02.001Z,82.84
2019-04-20T05:28:04.173Z,81.71
2019-04-20T05:28:51.323Z,81.26
2019-04-20T05:29:42.633Z,81.98
2019-04-20T05:30:46.857Z,78.96
2019-04-20T05:31:48.628Z,79.16
2019-04-20T05:32:51.431Z,78.82
2019-04-20T05:34:11.497Z,78.10
2019-04-20T05:35:04.992Z,77.03
2019-04-20T05:37:24.010Z,76.79
2019-04-20T05:38:20.397Z,76.25
2019-04-20T05:39:21.483Z,76.45
2019-04-20T05:41:23.531Z,76.10
2019-04-20T05:42:30.198Z,75.35
2019-04-20T05:43:26.388Z,75.04
2019-04-20T05:44:22.166Z,74.70
2019-04-20T05:45:22.017Z,73.78
2019-04-20T05:46:26.213Z,72.82
2019-04-20T05:47:26.732Z,72.72
2019-04-20T05:48:23.498Z,71.28
2019-04-20T05:49:28.707Z,70.43
2019-04-20T05:50:25.155Z,70.29
2019-04-20T05:51:33.763Z,69.85
2019-04-20T05:52:36.193Z,71.08
2019-04-20T05:53:30.569Z,72.31
2019-04-20T05:54:25.602Z,72.99
2019-04-20T05:55:27.913Z,72.58
2019-04-20T05:56:34.411Z,71.73
2019-04-20T05:57:31.894Z,70.71
2019-04-20T05:58:26.403Z,69.85
2019-04-20T05:59:23.756Z,70.78
2019-04-20T06:00:39.004Z,70.34
2019-04-20T06:01:31.841Z,71.05
2019-04-20T06:02:30.582Z,70.43
2019-04-20T06:04:44.439Z,69.28
2019-04-20T06:05:28.888Z,68.16
2019-04-20T06:06:27.390Z,67.82
2019-04-20T06:07:21.487Z,67.41
2019-04-20T06:09:28.244Z,66.33
2019-04-20T06:10:35.585Z,66.63
2019-04-20T06:11:26.781Z,66.39
2019-04-20T06:12:28.431Z,67.93
2019-04-20T06:13:17.349Z,68.44
2019-04-20T06:14:13.260Z,65.86
2019-04-20T06:15:18.655Z,66.36
2019-04-20T06:16:22.609Z,66.03
2019-04-20T06:17:27.143Z,65.80
2019-04-20T06:18:20.782Z,65.69
2019-04-20T06:20:28.405Z,63.93
2019-04-20T06:21:33.768Z,59.42
2019-04-20T06:22:33.759Z,64.41
2019-04-20T06:23:33.560Z,65.30
2019-04-20T06:24:36.315Z,65.80
2019-04-20T06:27:30.862Z,52.94
2019-04-20T06:28:26.836Z,48.95
2019-04-20T06:29:22.551Z,48.02
2019-04-20T06:30:19.092Z,47.49
2019-04-20T06:31:40.987Z,46.47
2019-04-20T06:32:29.564Z,45.13
2019-04-20T06:33:46.418Z,45.42
2019-04-20T06:35:54.496Z,44.68
2019-04-20T06:36:38.797Z,43.77
2019-04-20T06:37:36.271Z,42.63
2019-04-20T06:41:01.916Z,41.80
2019-04-20T06:41:57.359Z,42.23
2019-04-20T06:42:36.067Z,42.01
2019-04-20T06:43:42.075Z,41.91
2019-04-20T06:44:34.366Z,41.50
2019-04-20T06:45:48.902Z,41.20
2019-04-20T06:46:37.470Z,40.57
2019-04-20T06:47:39.333Z,41.56
2019-04-20T06:48:40.191Z,39.95
2019-04-20T06:49:35.335Z,40.55
2019-04-20T06:50:28.820Z,40.33
2019-04-20T06:51:35.069Z,40.53
2019-04-20T06:52:32.331Z,40.23
2019-04-20T06:53:43.431Z,41.02
2019-04-20T06:54:36.082Z,40.31
2019-04-20T06:56:54.244Z,39.79
2019-04-20T06:57:55.049Z,40.30
2019-04-20T06:59:01.071Z,38.78
2019-04-20T06:59:55.685Z,39.99
2019-04-20T07:00:58.339Z,39.70
2019-04-20T07:02:03.914Z,39.57
2019-04-20T07:02:54.200Z,39.15
2019-04-20T07:04:19.019Z,39.25
2019-04-20T07:06:06.340Z,38.00
2019-04-20T07:07:02.319Z,37.48
2019-04-20T07:08:05.830Z,37.27
2019-04-20T07:09:01.751Z,37.68
2019-04-20T07:10:08.844Z,37.27
2019-04-20T07:10:58.343Z,37.38
2019-04-20T07:11:50.478Z,37.58
2019-04-20T07:12:49.591Z,37.58
2019-04-20T07:13:44.051Z,37.07
2019-04-20T07:14:47.447Z,36.86
2019-04-20T07:15:50.778Z,36.74
2019-04-20T07:16:53.364Z,36.44
2019-04-20T07:18:08.289Z,35.90
2019-04-20T07:18:55.197Z,35.28
2019-04-20T07:19:50.088Z,34.88
2019-04-20T07:20:59.540Z,35.48
2019-04-20T07:23:02.221Z,35.16
2019-04-20T07:24:04.726Z,35.53
2019-04-20T07:24:56.686Z,34.31
2019-04-20T07:25:54.218Z,34.41
2019-04-20T07:26:55.560Z,34.34
2019-04-20T07:27:58.271Z,35.57
2019-04-20T07:29:00.435Z,35.64
2019-04-20T07:29:56.501Z,34.92
2019-04-20T07:30:55.376Z,35.30
2019-04-20T07:31:50.017Z,34.29
2019-04-20T07:33:08.923Z,34.80
2019-04-20T07:34:01.832Z,33.99
2019-04-20T07:34:56.891Z,33.39
2019-04-20T07:35:50.536Z,33.99
2019-04-20T07:37:19.334Z,33.79
2019-04-20T07:38:55.324Z,33.99
2019-04-20T07:40:01.107Z,33.59
2019-04-20T07:40:49.953Z,33.47
2019-04-20T07:42:00.680Z,33.99
2019-04-20T07:42:57.709Z,34.91
2019-04-20T07:44:04.727Z,34.58
2019-04-20T07:45:01.829Z,32.84
2019-04-20T07:45:55.747Z,32.44
2019-04-20T07:47:04.386Z,32.24
2019-04-20T07:48:01.370Z,32.74
2019-04-20T07:48:54.113Z,30.82
2019-04-20T07:49:49.754Z,32.51
2019-04-20T07:50:45.011Z,31.99
2019-04-20T07:51:40.059Z,30.90
2019-04-20T07:52:46.278Z,31.08
2019-04-20T07:53:57.588Z,30.16
2019-04-20T07:55:15.276Z,30.45
2019-04-20T07:55:56.539Z,29.44
2019-04-20T07:56:53.984Z,29.22
2019-04-20T07:57:47.139Z,28.73
2019-04-20T07:58:45.501Z,29.33
2019-04-20T07:59:55.804Z,29.22
2019-04-20T08:01:02.590Z,29.91
2019-04-20T08:02:05.956Z,28.61
2019-04-20T08:02:57.275Z,28.60
2019-04-20T08:03:55.557Z,28.60
2019-04-20T08:04:53.842Z,28.70
2019-04-20T08:05:47.024Z,28.71
2019-04-20T08:06:44.287Z,29.11
2019-04-20T08:07:45.575Z,28.40
2019-04-20T08:08:50.368Z,29.18
2019-04-20T08:09:44.225Z,30.52
2019-04-20T08:10:51.558Z,32.14
2019-04-20T08:11:57.874Z,32.45
2019-04-20T08:13:02.126Z,33.25
2019-04-20T08:13:56.953Z,32.53
2019-04-20T08:15:04.955Z,32.25
2019-04-20T08:15:57.185Z,32.71
2019-04-20T08:17:10.260Z,32.30
2019-04-20T08:18:08.908Z,32.22
2019-04-20T08:18:55.122Z,32.40
2019-04-20T08:19:51.003Z,32.29
2019-04-20T08:20:58.521Z,30.69
2019-04-20T08:21:52.498Z,31.19
2019-04-20T08:22:53.187Z,32.02
2019-04-20T08:23:51.919Z,31.43
2019-04-20T08:24:48.711Z,33.23
2019-04-20T08:25:46.422Z,32.32
2019-04-20T08:26:40.168Z,31.12
2019-04-20T08:27:33.918Z,30.91
2019-04-20T08:28:42.285Z,31.07
2019-04-20T08:29:48.340Z,29.69
2019-04-20T08:30:53.752Z,29.38
2019-04-20T08:31:50.166Z,29.57
2019-04-20T08:32:50.564Z,30.07
2019-04-20T08:34:01.781Z,31.15
2019-04-20T08:34:56.003Z,30.76
2019-04-20T08:36:02.744Z,30.25
2019-04-20T08:36:56.647Z,29.22
2019-04-20T08:38:14.823Z,29.52
2019-04-20T08:40:53.927Z,29.21
2019-04-20T08:41:57.540Z,28.99
2019-04-20T08:43:02.444Z,28.08
2019-04-20T08:45:00.165Z,29.34
2019-04-20T08:45:57.470Z,29.04
2019-04-20T08:47:03.859Z,29.33
2019-04-20T08:47:56.361Z,29.04
2019-04-20T08:48:56.848Z,29.46
2019-04-20T08:49:57.098Z,30.36
2019-04-20T08:50:53.372Z,30.43
2019-04-20T08:52:01.691Z,28.64
2019-04-20T08:53:54.093Z,28.64
2019-04-20T08:54:54.161Z,28.52
2019-04-20T08:55:48.903Z,28.47
2019-04-20T08:56:41.528Z,28.25
2019-04-20T08:57:33.729Z,27.63
2019-04-20T08:58:33.845Z,25.56
2019-04-20T08:59:35.066Z,27.44
2019-04-20T09:00:39.638Z,26.27
2019-04-20T09:01:35.843Z,26.96
2019-04-20T09:02:32.758Z,27.27
2019-04-20T09:03:44.100Z,26.31
2019-04-20T09:04:43.227Z,26.50
2019-04-20T09:05:45.824Z,26.28
2019-04-20T09:06:46.072Z,26.64
2019-04-20T09:07:39.081Z,26.23
2019-04-20T09:08:46.673Z,25.05
2019-04-20T09:09:57.470Z,26.45
2019-04-20T09:10:48.180Z,27.06
2019-04-20T09:11:54.439Z,26.56
2019-04-20T09:12:50.669Z,26.34
2019-04-20T09:13:42.482Z,25.63
2019-04-20T09:14:35.727Z,25.04
2019-04-20T09:15:32.375Z,25.57
2019-04-20T09:16:40.975Z,26.48
2019-04-20T09:17:39.698Z,25.76
2019-04-20T09:18:44.270Z,25.04
2019-04-20T09:19:41.730Z,25.61
2019-04-20T09:20:44.568Z,24.58
2019-04-20T09:21:43.690Z,24.72
2019-04-20T09:22:46.637Z,25.62
2019-04-20T09:23:45.453Z,24.71
2019-04-20T09:24:58.045Z,24.20
2019-04-20T09:26:05.939Z,24.19
2019-04-20T09:26:54.673Z,23.40
2019-04-20T09:27:42.899Z,23.88
2019-04-20T09:28:39.399Z,24.18
2019-04-20T09:29:43.779Z,24.96
2019-04-20T09:30:45.621Z,23.16
2019-04-20T09:31:47.058Z,22.88
2019-04-20T09:32:45.239Z,23.99
2019-04-20T09:33:51.605Z,24.60
2019-04-20T09:34:55.804Z,24.57
2019-04-20T09:35:50.360Z,23.16
2019-04-20T09:36:45.768Z,22.55
2019-04-20T09:37:57.130Z,22.14
2019-04-20T09:38:46.668Z,22.85
2019-04-20T09:39:51.399Z,22.46
2019-04-20T09:40:50.999Z,22.26
2019-04-20T09:41:58.136Z,22.93
2019-04-20T09:42:33.103Z,22.72
2019-04-20T09:43:32.411Z,22.73
2019-04-20T09:44:39.841Z,23.52
2019-04-20T09:45:39.926Z,21.84
2019-04-20T09:46:41.275Z,22.05
2019-04-20T09:47:39.614Z,23.15
2019-04-20T09:48:40.133Z,23.49
2019-04-20T09:49:46.128Z,23.77
2019-04-20T09:50:55.603Z,24.92
2019-04-20T09:51:51.201Z,23.14
2019-04-20T09:52:51.705Z,23.44
2019-04-20T09:53:43.200Z,22.67
2019-04-20T09:54:52.558Z,22.96
2019-04-20T09:55:50.506Z,23.63
2019-04-20T09:56:56.703Z,21.83
2019-04-20T09:57:51.501Z,23.39
2019-04-20T09:58:57.800Z,22.69
2019-04-20T09:59:53.677Z,22.49
2019-04-20T10:00:46.953Z,22.78
2019-04-20T10:01:41.841Z,22.01
2019-04-20T10:02:36.071Z,21.75
2019-04-20T10:03:32.914Z,22.62
2019-04-20T10:04:31.889Z,23.51
2019-04-20T10:05:32.069Z,24.00
2019-04-20T10:06:35.633Z,22.42
2019-04-20T10:07:35.376Z,23.62
2019-04-20T10:08:40.024Z,24.01
2019-04-20T10:09:37.593Z,24.04
2019-04-20T10:10:38.906Z,24.05
2019-04-20T10:11:32.843Z,24.63
2019-04-20T10:12:31.826Z,24.33
2019-04-20T10:13:32.183Z,23.33
2019-04-20T10:14:33.100Z,23.63
2019-04-20T10:15:33.013Z,24.11
2019-04-20T10:16:31.765Z,23.93
2019-04-20T10:17:33.510Z,23.52
2019-04-20T10:18:34.226Z,23.43
2019-04-20T10:19:35.712Z,22.91
2019-04-20T10:20:36.150Z,22.61
2019-04-20T10:21:33.949Z,22.92
2019-04-20T10:22:32.897Z,23.72
2019-04-20T10:23:32.462Z,23.80
2019-04-20T10:24:32.784Z,23.33
2019-04-20T10:25:32.905Z,23.74
2019-04-20T10:26:32.397Z,24.52
2019-04-20T10:27:32.738Z,23.74
2019-04-20T10:28:31.845Z,25.22
2019-04-20T10:29:31.675Z,25.33
2019-04-20T10:30:32.536Z,25.26
2019-04-20T10:31:35.782Z,24.57
2019-04-20T10:32:39.188Z,25.73
2019-04-20T10:33:33.490Z,24.53
2019-04-20T10:34:32.740Z,23.84
2019-04-20T10:35:31.794Z,25.22
2019-04-20T10:36:31.700Z,23.53
2019-04-20T10:37:31.688Z,23.53
2019-04-20T10:38:34.184Z,22.52
2019-04-20T10:39:31.535Z,22.20
2019-04-20T10:40:43.264Z,22.77
2019-04-20T10:41:40.923Z,23.06
2019-04-20T10:42:32.523Z,21.26
2019-04-20T10:43:31.507Z,20.56
2019-04-20T10:44:32.698Z,21.56
2019-04-20T10:45:32.965Z,22.26
2019-04-20T10:46:31.498Z,22.20
2019-04-20T10:47:32.684Z,21.69
2019-04-20T10:48:38.632Z,21.76
2019-04-20T10:49:33.238Z,20.57
2019-04-20T10:50:32.371Z,20.96
2019-04-20T10:51:31.534Z,20.75
2019-04-20T10:52:32.013Z,21.70
2019-04-20T10:53:32.187Z,20.22
2019-04-20T10:54:32.381Z,20.39
2019-04-20T10:55:31.508Z,20.68
2019-04-20T10:56:31.776Z,19.80
2019-04-20T10:57:31.386Z,19.93
2019-04-20T10:58:31.773Z,19.73
2019-04-20T10:59:31.844Z,19.89
2019-04-20T11:00:31.441Z,20.61
2019-04-20T11:01:31.631Z,20.89
2019-04-20T11:02:31.917Z,20.69
2019-04-20T11:03:32.337Z,19.59
2019-04-20T11:04:32.618Z,19.96
2019-04-20T11:05:32.746Z,20.26
2019-04-20T11:06:32.367Z,19.55
2019-04-20T11:07:32.458Z,19.34
2019-04-20T11:08:32.785Z,20.30
2019-04-20T11:09:32.478Z,19.29
2019-04-20T11:10:46.835Z,19.37
2019-04-20T11:11:33.692Z,18.52
2019-04-20T11:12:32.497Z,19.46
2019-04-20T11:13:31.224Z,20.24
2019-04-20T11:14:35.199Z,19.86
2019-04-20T11:15:32.482Z,19.28
2019-04-20T11:16:32.709Z,19.96
2019-04-20T11:17:31.824Z,19.17
2019-04-20T11:18:31.425Z,18.85
2019-04-20T11:19:31.573Z,18.34
2019-04-20T11:20:31.167Z,18.80
2019-04-20T11:21:32.346Z,18.21
2019-04-20T11:22:32.492Z,18.62
2019-04-20T11:23:32.101Z,18.31
2019-04-20T11:24:32.278Z,18.63
2019-04-20T11:25:32.383Z,18.66
2019-04-20T11:26:32.185Z,18.18
2019-04-20T11:27:32.188Z,18.07
2019-04-20T11:28:32.277Z,18.87
2019-04-20T11:29:31.896Z,18.97
2019-04-20T11:30:32.207Z,18.79
2019-04-20T11:31:36.369Z,18.02
2019-04-20T11:32:32.073Z,18.98
2019-04-20T11:33:32.076Z,18.88
2019-04-20T11:34:34.035Z,18.66
2019-04-20T11:35:37.237Z,19.12
2019-04-20T11:36:32.981Z,18.19
2019-04-20T11:37:31.135Z,18.50
2019-04-20T11:38:30.987Z,18.43
2019-04-20T11:39:30.979Z,19.02
2019-04-20T11:40:30.960Z,19.41
2019-04-20T11:41:32.724Z,20.30
2019-04-20T11:42:31.946Z,20.66
2019-04-20T11:43:31.526Z,20.06
2019-04-20T11:44:32.173Z,19.75
2019-04-20T11:45:31.040Z,19.94
2019-04-20T11:46:30.929Z,17.80
2019-04-20T11:47:31.586Z,17.88
2019-04-20T11:48:31.724Z,18.66
2019-04-20T11:49:31.316Z,18.26
2019-04-20T11:50:31.610Z,17.87
2019-04-20T11:51:31.773Z,18.74
2019-04-20T11:52:33.228Z,20.51
2019-04-20T11:53:32.264Z,18.54
2019-04-20T11:54:32.380Z,18.24
2019-04-20T11:55:30.828Z,16.31
2019-04-20T11:56:36.167Z,17.58
2019-04-20T11:57:31.837Z,16.09
2019-04-20T11:58:30.798Z,17.35
2019-04-20T11:59:31.100Z,17.82
2019-04-20T12:00:37.072Z,18.70
2019-04-20T12:01:37.093Z,18.51
2019-04-20T12:02:38.265Z,18.44
2019-04-20T12:03:46.311Z,18.82
2019-04-20T12:04:41.380Z,17.85
2019-04-20T12:05:38.096Z,17.66
2019-04-20T12:06:32.767Z,17.16
2019-04-20T12:07:33.713Z,18.34
2019-04-20T12:08:32.182Z,17.58
2019-04-20T12:09:31.390Z,17.88
2019-04-20T12:10:31.525Z,17.31
2019-04-20T12:11:37.099Z,16.92
2019-04-20T12:12:40.083Z,15.35
2019-04-20T12:13:31.676Z,14.96
2019-04-20T12:14:30.674Z,15.16
2019-04-20T12:15:34.784Z,15.64
2019-04-20T12:16:31.885Z,16.92
2019-04-20T12:17:31.439Z,16.72
2019-04-20T12:18:31.706Z,19.26
2019-04-20T12:19:31.182Z,17.88
2019-04-20T12:20:30.614Z,18.58
2019-04-20T12:21:30.792Z,17.99
2019-04-20T12:22:30.585Z,18.00
2019-04-20T12:23:30.720Z,16.05
2019-04-20T12:24:31.683Z,15.27
2019-04-20T12:25:34.185Z,14.79
2019-04-20T12:26:31.022Z,14.39
2019-04-20T12:27:30.552Z,15.95
2019-04-20T12:28:31.586Z,18.29
2019-04-20T12:29:31.965Z,18.10
2019-04-20T12:30:30.539Z,18.99
2019-04-20T12:31:31.494Z,19.29
2019-04-20T12:32:36.423Z,17.82
2019-04-20T12:33:32.596Z,17.82
2019-04-20T12:34:30.772Z,17.90
2019-04-20T12:35:30.478Z,17.90
2019-04-20T12:36:30.467Z,17.62
2019-04-20T12:37:31.289Z,17.61
2019-04-20T12:38:30.833Z,17.22
2019-04-20T12:39:31.232Z,18.21
2019-04-20T12:40:30.440Z,18.82
2019-04-20T12:41:37.613Z,18.62
2019-04-20T12:42:32.950Z,18.92
2019-04-20T12:43:31.778Z,18.23
2019-04-20T12:44:30.415Z,19.01
2019-04-20T12:45:31.504Z,18.98
2019-04-20T12:46:31.829Z,17.69
2019-04-20T12:47:32.090Z,16.61
2019-04-20T12:48:31.484Z,17.11
2019-04-20T12:49:31.634Z,16.31
2019-04-20T12:50:31.737Z,15.94
2019-04-20T12:51:33.522Z,17.70
2019-04-20T12:52:32.427Z,16.82
2019-04-20T12:53:30.746Z,16.03
2019-04-20T12:54:30.326Z,16.91
2019-04-20T12:55:30.592Z,16.32
2019-04-20T12:56:30.649Z,16.35
2019-04-20T12:57:30.683Z,16.74
2019-04-20T12:58:30.627Z,16.06
2019-04-20T12:59:31.572Z,17.03
2019-04-20T13:00:30.275Z,16.24
2019-04-20T13:01:30.287Z,15.18
2019-04-20T13:02:31.457Z,16.64
2019-04-20T13:03:30.264Z,17.52
2019-04-20T13:04:30.250Z,17.72
2019-04-20T13:05:30.213Z,17.72
2019-04-20T13:06:30.236Z,16.72
2019-04-20T13:07:31.557Z,15.15
2019-04-20T13:08:36.850Z,16.90
2019-04-20T13:09:32.515Z,15.05
2019-04-20T13:10:31.629Z,15.64
2019-04-20T13:11:30.956Z,14.50
2019-04-20T13:12:32.186Z,15.50
2019-04-20T13:13:30.510Z,16.00
2019-04-20T13:14:30.598Z,18.16
2019-04-20T13:15:30.131Z,17.67
2019-04-20T13:16:30.687Z,18.24
2019-04-20T13:17:30.690Z,17.85
2019-04-20T13:18:30.250Z,17.75
2019-04-20T13:19:31.166Z,16.28
2019-04-20T13:20:30.135Z,15.30
2019-04-20T13:21:31.153Z,15.50
2019-04-20T13:22:30.858Z,14.59
2019-04-20T13:23:31.011Z,15.19
2019-04-20T13:24:32.252Z,15.58
2019-04-20T13:25:30.832Z,17.05
2019-04-20T13:26:31.003Z,16.17
2019-04-20T13:27:31.149Z,15.98
2019-04-20T13:28:30.742Z,16.36
2019-04-20T13:29:30.998Z,16.75
2019-04-20T13:30:30.142Z,16.44
2019-04-20T13:31:30.043Z,16.22
2019-04-20T13:32:29.974Z,15.93
2019-04-20T13:33:31.390Z,14.87
2019-04-20T13:34:29.984Z,13.62
2019-04-20T13:35:30.166Z,15.19
2019-04-20T13:36:30.387Z,16.06
2019-04-20T13:37:29.956Z,15.30
2019-04-20T13:38:30.257Z,16.66
2019-04-20T13:39:30.963Z,16.17